sensor_id;sensor_type;location;lat;lon;timestamp;pressure;altitude;pressure_sealevel;temperature;humidity
19023;BME280;35226;48.606;8.858;2022-09-09T00:04:30;95963.44;;;17.28;100.00
19023;BME280;35226;48.606;8.858;2022-09-09T00:12:11;95960.69;;;17.34;100.00
19023;BME280;35226;48.606;8.858;2022-09-09T00:14:57;95954.88;;;17.37;100.00
19023;BME280;35226;48.606;8.858;2022-09-09T00:23:25;95943.69;;;17.32;100.00
19023;BME280;35226;48.606;8.858;2022-09-09T00:31:33;95954.47;;;17.50;100.00
19023;BME280;35226;48.606;8.858;2022-09-09T00:34:05;95945.34;;;17.55;100.00
19023;BME280;35226;48.606;8.858;2022-09-09T00:36:35;95941.03;;;17.54;100.00
19023;BME280;35226;48.606;8.858;2022-09-09T00:39:03;95940.97;;;17.43;100.00
19023;BME280;35226;48.606;8.858;2022-09-09T00:44:03;95930.78;;;17.40;100.00
19023;BME280;35226;48.606;8.858;2022-09-09T00:49:36;95940.22;;;17.48;100.00
19023;BME280;35226;48.606;8.858;2022-09-09T00:52:31;95933.53;;;17.34;100.00
19023;BME280;35226;48.606;8.858;2022-09-09T00:57:37;95944.84;;;17.51;100.00
19023;BME280;35226;48.606;8.858;2022-09-09T01:02:52;95952.44;;;17.51;100.00
19023;BME280;35226;48.606;8.858;2022-09-09T01:05:27;95955.47;;;17.47;100.00
19023;BME280;35226;48.606;8.858;2022-09-09T01:07:57;95957.00;;;17.48;100.00
19023;BME280;35226;48.606;8.858;2022-09-09T01:10:52;95950.63;;;17.48;100.00
19023;BME280;35226;48.606;8.858;2022-09-09T01:13:25;95957.72;;;17.43;100.00
19023;BME280;35226;48.606;8.858;2022-09-09T01:15:53;95959.69;;;17.37;100.00
19023;BME280;35226;48.606;8.858;2022-09-09T01:18:23;95964.53;;;17.36;100.00
19023;BME280;35226;48.606;8.858;2022-09-09T01:28:57;95954.97;;;17.17;100.00
19023;BME280;35226;48.606;8.858;2022-09-09T01:31:39;95969.78;;;17.23;100.00
19023;BME280;35226;48.606;8.858;2022-09-09T01:34:14;95959.28;;;17.13;100.00
19023;BME280;35226;48.606;8.858;2022-09-09T01:36:46;95962.97;;;17.04;100.00
19023;BME280;35226;48.606;8.858;2022-09-09T01:39:15;95950.38;;;17.14;100.00
19023;BME280;35226;48.606;8.858;2022-09-09T01:41:43;95951.13;;;17.09;100.00
19023;BME280;35226;48.606;8.858;2022-09-09T01:44:11;95956.13;;;17.31;100.00
19023;BME280;35226;48.606;8.858;2022-09-09T01:46:39;95962.66;;;17.22;100.00
19023;BME280;35226;48.606;8.858;2022-09-09T01:49:10;95973.47;;;17.15;100.00
19023;BME280;35226;48.606;8.858;2022-09-09T01:51:38;95973.53;;;17.20;100.00
19023;BME280;35226;48.606;8.858;2022-09-09T01:54:10;95970.97;;;17.17;100.00
19023;BME280;35226;48.606;8.858;2022-09-09T01:59:45;95963.25;;;17.06;100.00
19023;BME280;35226;48.606;8.858;2022-09-09T02:05:00;95963.94;;;16.95;100.00
19023;BME280;35226;48.606;8.858;2022-09-09T02:07:43;95969.75;;;16.92;100.00
19023;BME280;35226;48.606;8.858;2022-09-09T02:10:40;95971.00;;;16.91;100.00
19023;BME280;35226;48.606;8.858;2022-09-09T02:13:16;95963.28;;;16.80;100.00
19023;BME280;35226;48.606;8.858;2022-09-09T02:18:18;95976.78;;;16.87;100.00
19023;BME280;35226;48.606;8.858;2022-09-09T02:20:45;95977.28;;;16.86;100.00
19023;BME280;35226;48.606;8.858;2022-09-09T02:23:12;95971.16;;;16.82;100.00
19023;BME280;35226;48.606;8.858;2022-09-09T02:25:40;95972.72;;;16.83;100.00
19023;BME280;35226;48.606;8.858;2022-09-09T02:28:20;95974.47;;;16.60;100.00
19023;BME280;35226;48.606;8.858;2022-09-09T02:30:48;95979.63;;;16.67;100.00
19023;BME280;35226;48.606;8.858;2022-09-09T02:33:19;95974.94;;;16.58;100.00
19023;BME280;35226;48.606;8.858;2022-09-09T02:35:51;95977.97;;;16.55;100.00
19023;BME280;35226;48.606;8.858;2022-09-09T02:38:21;95964.56;;;16.59;100.00
19023;BME280;35226;48.606;8.858;2022-09-09T02:41:15;95951.47;;;16.65;100.00
19023;BME280;35226;48.606;8.858;2022-09-09T02:43:41;95952.16;;;16.60;100.00
19023;BME280;35226;48.606;8.858;2022-09-09T02:49:15;95954.38;;;16.56;100.00
19023;BME280;35226;48.606;8.858;2022-09-09T02:54:26;95950.28;;;16.51;100.00
19023;BME280;35226;48.606;8.858;2022-09-09T02:56:54;95959.34;;;16.46;100.00
19023;BME280;35226;48.606;8.858;2022-09-09T02:59:28;95964.69;;;16.44;100.00
19023;BME280;35226;48.606;8.858;2022-09-09T03:01:55;95963.63;;;16.42;100.00
19023;BME280;35226;48.606;8.858;2022-09-09T03:04:21;95966.75;;;16.49;100.00
19023;BME280;35226;48.606;8.858;2022-09-09T03:06:51;95962.25;;;16.57;100.00
19023;BME280;35226;48.606;8.858;2022-09-09T03:09:19;95962.13;;;16.46;100.00
19023;BME280;35226;48.606;8.858;2022-09-09T03:11:45;95968.06;;;16.54;100.00
19023;BME280;35226;48.606;8.858;2022-09-09T03:14:12;95962.84;;;16.41;100.00
19023;BME280;35226;48.606;8.858;2022-09-09T03:16:39;95961.03;;;16.38;100.00
19023;BME280;35226;48.606;8.858;2022-09-09T03:19:05;95966.63;;;16.38;100.00
19023;BME280;35226;48.606;8.858;2022-09-09T03:21:32;95962.41;;;16.48;100.00
19023;BME280;35226;48.606;8.858;2022-09-09T03:23:58;95961.81;;;16.39;100.00
19023;BME280;35226;48.606;8.858;2022-09-09T03:26:23;95957.44;;;16.32;100.00
19023;BME280;35226;48.606;8.858;2022-09-09T03:28:49;95951.00;;;16.26;100.00
19023;BME280;35226;48.606;8.858;2022-09-09T03:31:20;95961.44;;;16.25;100.00
19023;BME280;35226;48.606;8.858;2022-09-09T03:33:46;95962.03;;;16.35;100.00
19023;BME280;35226;48.606;8.858;2022-09-09T03:36:14;95957.31;;;16.21;100.00
19023;BME280;35226;48.606;8.858;2022-09-09T03:38:40;95960.66;;;16.05;100.00
19023;BME280;35226;48.606;8.858;2022-09-09T03:41:07;95969.41;;;16.18;100.00
19023;BME280;35226;48.606;8.858;2022-09-09T03:43:33;95959.19;;;16.09;100.00
19023;BME280;35226;48.606;8.858;2022-09-09T03:45:59;95963.72;;;16.07;100.00
19023;BME280;35226;48.606;8.858;2022-09-09T03:48:27;95965.94;;;16.03;100.00
19023;BME280;35226;48.606;8.858;2022-09-09T03:50:54;95965.31;;;15.93;100.00
19023;BME280;35226;48.606;8.858;2022-09-09T03:53:26;95961.06;;;15.98;100.00
19023;BME280;35226;48.606;8.858;2022-09-09T03:55:54;95963.03;;;15.91;100.00
19023;BME280;35226;48.606;8.858;2022-09-09T03:58:22;95962.31;;;15.76;100.00
19023;BME280;35226;48.606;8.858;2022-09-09T04:00:58;95970.88;;;15.73;100.00
19023;BME280;35226;48.606;8.858;2022-09-09T04:03:26;95969.16;;;15.96;100.00
19023;BME280;35226;48.606;8.858;2022-09-09T04:05:52;95960.44;;;16.08;100.00
19023;BME280;35226;48.606;8.858;2022-09-09T04:08:20;95958.50;;;16.14;100.00
19023;BME280;35226;48.606;8.858;2022-09-09T04:10:48;95964.13;;;16.00;100.00
19023;BME280;35226;48.606;8.858;2022-09-09T04:13:16;95957.66;;;16.08;100.00
19023;BME280;35226;48.606;8.858;2022-09-09T04:15:44;95967.00;;;16.05;100.00
19023;BME280;35226;48.606;8.858;2022-09-09T04:18:15;95968.13;;;16.13;100.00
19023;BME280;35226;48.606;8.858;2022-09-09T04:20:41;95969.41;;;16.18;100.00
19023;BME280;35226;48.606;8.858;2022-09-09T04:23:09;95968.94;;;16.19;100.00
19023;BME280;35226;48.606;8.858;2022-09-09T04:25:34;95964.13;;;16.20;100.00
19023;BME280;35226;48.606;8.858;2022-09-09T04:28:00;95967.81;;;16.32;100.00
19023;BME280;35226;48.606;8.858;2022-09-09T04:30:27;95971.66;;;16.34;100.00
19023;BME280;35226;48.606;8.858;2022-09-09T04:32:53;95973.03;;;16.44;100.00
19023;BME280;35226;48.606;8.858;2022-09-09T04:35:19;95961.59;;;16.42;100.00
19023;BME280;35226;48.606;8.858;2022-09-09T04:37:45;95961.66;;;16.48;100.00
19023;BME280;35226;48.606;8.858;2022-09-09T04:40:11;95965.69;;;16.47;100.00
19023;BME280;35226;48.606;8.858;2022-09-09T04:42:37;95964.72;;;16.50;100.00
19023;BME280;35226;48.606;8.858;2022-09-09T04:45:04;95975.06;;;16.44;100.00
19023;BME280;35226;48.606;8.858;2022-09-09T04:47:30;95973.28;;;16.46;100.00
19023;BME280;35226;48.606;8.858;2022-09-09T04:49:56;95978.25;;;16.37;100.00
19023;BME280;35226;48.606;8.858;2022-09-09T04:52:23;95981.41;;;16.44;100.00
19023;BME280;35226;48.606;8.858;2022-09-09T04:54:48;95982.84;;;16.40;100.00
19023;BME280;35226;48.606;8.858;2022-09-09T04:57:14;95987.47;;;16.22;100.00
19023;BME280;35226;48.606;8.858;2022-09-09T04:59:40;95991.16;;;16.34;100.00
19023;BME280;35226;48.606;8.858;2022-09-09T05:02:06;95975.81;;;16.44;100.00
19023;BME280;35226;48.606;8.858;2022-09-09T05:04:32;95970.47;;;16.41;100.00
19023;BME280;35226;48.606;8.858;2022-09-09T05:06:58;95974.28;;;16.43;100.00
19023;BME280;35226;48.606;8.858;2022-09-09T05:09:24;95976.31;;;16.43;100.00
19023;BME280;35226;48.606;8.858;2022-09-09T05:11:51;95982.66;;;16.43;100.00
19023;BME280;35226;48.606;8.858;2022-09-09T05:14:28;95985.56;;;16.54;100.00
19023;BME280;35226;48.606;8.858;2022-09-09T05:16:55;95987.66;;;16.59;100.00
19023;BME280;35226;48.606;8.858;2022-09-09T05:19:22;95991.91;;;16.55;100.00
19023;BME280;35226;48.606;8.858;2022-09-09T05:21:49;95995.44;;;16.55;100.00
19023;BME280;35226;48.606;8.858;2022-09-09T05:24:19;95993.53;;;16.61;100.00
19023;BME280;35226;48.606;8.858;2022-09-09T05:26:46;95995.34;;;16.64;100.00
19023;BME280;35226;48.606;8.858;2022-09-09T05:29:13;96001.78;;;16.56;100.00
19023;BME280;35226;48.606;8.858;2022-09-09T05:31:39;96008.00;;;16.65;100.00
19023;BME280;35226;48.606;8.858;2022-09-09T05:34:09;96000.16;;;16.64;100.00
19023;BME280;35226;48.606;8.858;2022-09-09T05:36:35;96004.47;;;16.65;100.00
19023;BME280;35226;48.606;8.858;2022-09-09T05:39:00;96006.75;;;16.67;100.00
19023;BME280;35226;48.606;8.858;2022-09-09T05:41:27;96003.00;;;16.70;100.00
19023;BME280;35226;48.606;8.858;2022-09-09T05:43:55;96012.13;;;16.70;100.00
19023;BME280;35226;48.606;8.858;2022-09-09T05:46:23;96010.94;;;16.77;100.00
19023;BME280;35226;48.606;8.858;2022-09-09T05:48:52;96006.34;;;16.74;100.00
19023;BME280;35226;48.606;8.858;2022-09-09T05:51:23;96007.13;;;16.74;100.00
19023;BME280;35226;48.606;8.858;2022-09-09T05:53:50;96000.50;;;16.72;100.00
19023;BME280;35226;48.606;8.858;2022-09-09T05:56:19;96001.53;;;16.54;100.00
19023;BME280;35226;48.606;8.858;2022-09-09T05:58:46;96000.16;;;16.44;100.00
19023;BME280;35226;48.606;8.858;2022-09-09T06:01:18;95995.59;;;16.67;100.00
19023;BME280;35226;48.606;8.858;2022-09-09T06:03:45;96003.72;;;16.64;100.00
19023;BME280;35226;48.606;8.858;2022-09-09T06:06:14;96013.22;;;16.78;100.00
19023;BME280;35226;48.606;8.858;2022-09-09T06:08:42;96015.63;;;16.65;100.00
19023;BME280;35226;48.606;8.858;2022-09-09T06:11:13;96015.69;;;16.71;100.00
19023;BME280;35226;48.606;8.858;2022-09-09T06:13:40;96011.44;;;17.01;100.00
19023;BME280;35226;48.606;8.858;2022-09-09T06:16:11;96014.75;;;17.05;100.00
19023;BME280;35226;48.606;8.858;2022-09-09T06:18:39;96009.13;;;16.99;100.00
19023;BME280;35226;48.606;8.858;2022-09-09T06:21:08;96004.31;;;17.00;100.00
19023;BME280;35226;48.606;8.858;2022-09-09T06:23:34;96012.38;;;16.92;100.00
19023;BME280;35226;48.606;8.858;2022-09-09T06:26:13;96003.09;;;17.07;100.00
19023;BME280;35226;48.606;8.858;2022-09-09T06:28:39;96008.03;;;17.17;100.00
19023;BME280;35226;48.606;8.858;2022-09-09T06:31:10;96004.59;;;17.33;100.00
19023;BME280;35226;48.606;8.858;2022-09-09T06:33:38;96014.66;;;17.20;100.00
19023;BME280;35226;48.606;8.858;2022-09-09T06:36:14;96013.25;;;17.35;100.00
19023;BME280;35226;48.606;8.858;2022-09-09T06:38:44;96005.06;;;17.26;100.00
19023;BME280;35226;48.606;8.858;2022-09-09T06:41:13;96007.03;;;17.20;100.00
19023;BME280;35226;48.606;8.858;2022-09-09T06:43:40;96010.13;;;17.22;100.00
19023;BME280;35226;48.606;8.858;2022-09-09T06:46:09;96009.44;;;17.33;100.00
19023;BME280;35226;48.606;8.858;2022-09-09T06:48:36;96010.63;;;17.26;100.00
19023;BME280;35226;48.606;8.858;2022-09-09T06:51:15;96017.38;;;17.40;100.00
19023;BME280;35226;48.606;8.858;2022-09-09T06:53:43;96011.59;;;17.49;100.00
19023;BME280;35226;48.606;8.858;2022-09-09T06:56:27;96007.44;;;17.39;100.00
19023;BME280;35226;48.606;8.858;2022-09-09T06:58:57;96001.91;;;17.45;100.00
19023;BME280;35226;48.606;8.858;2022-09-09T07:01:28;96007.16;;;17.31;100.00
19023;BME280;35226;48.606;8.858;2022-09-09T07:03:58;96002.75;;;17.56;100.00
19023;BME280;35226;48.606;8.858;2022-09-09T07:06:27;96017.47;;;17.25;100.00
19023;BME280;35226;48.606;8.858;2022-09-09T07:08:55;96023.28;;;17.53;100.00
19023;BME280;35226;48.606;8.858;2022-09-09T07:11:29;96024.66;;;17.06;100.00
19023;BME280;35226;48.606;8.858;2022-09-09T07:14:00;96017.00;;;17.58;100.00
19023;BME280;35226;48.606;8.858;2022-09-09T07:16:27;96013.44;;;17.58;100.00
19023;BME280;35226;48.606;8.858;2022-09-09T07:18:56;96012.53;;;17.41;100.00
19023;BME280;35226;48.606;8.858;2022-09-09T07:21:28;96008.94;;;17.66;100.00
19023;BME280;35226;48.606;8.858;2022-09-09T07:23:54;96013.63;;;17.49;100.00
19023;BME280;35226;48.606;8.858;2022-09-09T07:26:24;96014.91;;;17.53;100.00
19023;BME280;35226;48.606;8.858;2022-09-09T07:28:51;96015.41;;;17.83;100.00
19023;BME280;35226;48.606;8.858;2022-09-09T07:31:23;96011.16;;;17.93;100.00
19023;BME280;35226;48.606;8.858;2022-09-09T07:33:50;96010.13;;;17.91;100.00
19023;BME280;35226;48.606;8.858;2022-09-09T07:36:19;96016.97;;;17.90;100.00
19023;BME280;35226;48.606;8.858;2022-09-09T07:38:50;96021.88;;;17.63;100.00
19023;BME280;35226;48.606;8.858;2022-09-09T07:41:31;96021.41;;;18.13;100.00
19023;BME280;35226;48.606;8.858;2022-09-09T07:44:04;96023.16;;;18.05;100.00
19023;BME280;35226;48.606;8.858;2022-09-09T07:46:30;96022.19;;;18.13;100.00
19023;BME280;35226;48.606;8.858;2022-09-09T07:48:56;96015.19;;;18.35;100.00
19023;BME280;35226;48.606;8.858;2022-09-09T07:51:32;96011.59;;;18.29;100.00
19023;BME280;35226;48.606;8.858;2022-09-09T07:54:03;96014.22;;;18.49;100.00
19023;BME280;35226;48.606;8.858;2022-09-09T07:56:32;96017.69;;;18.27;100.00
19023;BME280;35226;48.606;8.858;2022-09-09T07:58:58;96026.53;;;18.15;100.00
19023;BME280;35226;48.606;8.858;2022-09-09T08:03:57;96035.69;;;18.69;100.00
19023;BME280;35226;48.606;8.858;2022-09-09T08:06:49;96034.50;;;18.98;100.00
19023;BME280;35226;48.606;8.858;2022-09-09T08:09:17;96025.06;;;18.95;100.00
19023;BME280;35226;48.606;8.858;2022-09-09T08:11:45;96032.97;;;19.02;100.00
19023;BME280;35226;48.606;8.858;2022-09-09T08:14:11;96037.59;;;19.22;100.00
19023;BME280;35226;48.606;8.858;2022-09-09T08:16:41;96040.38;;;19.00;100.00
19023;BME280;35226;48.606;8.858;2022-09-09T08:19:08;96029.16;;;19.00;100.00
19023;BME280;35226;48.606;8.858;2022-09-09T08:21:36;96033.28;;;19.38;100.00
19023;BME280;35226;48.606;8.858;2022-09-09T08:24:04;96040.94;;;19.59;100.00
19023;BME280;35226;48.606;8.858;2022-09-09T08:26:36;96042.50;;;19.77;100.00
19023;BME280;35226;48.606;8.858;2022-09-09T08:29:04;96038.41;;;19.84;100.00
19023;BME280;35226;48.606;8.858;2022-09-09T08:31:37;96033.53;;;20.01;100.00
19023;BME280;35226;48.606;8.858;2022-09-09T08:34:05;96040.38;;;20.17;100.00
19023;BME280;35226;48.606;8.858;2022-09-09T08:36:34;96048.84;;;19.83;100.00
19023;BME280;35226;48.606;8.858;2022-09-09T08:39:01;96047.03;;;20.14;100.00
19023;BME280;35226;48.606;8.858;2022-09-09T08:57:56;96051.31;;;19.03;100.00
19023;BME280;35226;48.606;8.858;2022-09-09T09:00:32;96057.66;;;19.04;100.00
19023;BME280;35226;48.606;8.858;2022-09-09T09:03:14;96046.72;;;19.00;100.00
19023;BME280;35226;48.606;8.858;2022-09-09T09:11:54;96063.81;;;19.08;100.00
19023;BME280;35226;48.606;8.858;2022-09-09T09:14:31;96050.56;;;19.08;100.00
19023;BME280;35226;48.606;8.858;2022-09-09T09:17:15;96047.00;;;19.08;100.00
19023;BME280;35226;48.606;8.858;2022-09-09T09:19:43;96045.22;;;19.16;100.00
19023;BME280;35226;48.606;8.858;2022-09-09T09:28:03;96029.97;;;19.39;100.00
19023;BME280;35226;48.606;8.858;2022-09-09T09:30:49;96028.44;;;19.27;100.00
19023;BME280;35226;48.606;8.858;2022-09-09T09:35:52;96020.84;;;19.55;100.00
19023;BME280;35226;48.606;8.858;2022-09-09T09:38:22;96019.56;;;19.56;100.00
19023;BME280;35226;48.606;8.858;2022-09-09T09:40:56;96027.94;;;19.34;100.00
19023;BME280;35226;48.606;8.858;2022-09-09T09:43:29;96019.28;;;19.43;100.00
19023;BME280;35226;48.606;8.858;2022-09-09T09:45:57;96019.81;;;19.53;100.00
19023;BME280;35226;48.606;8.858;2022-09-09T09:48:25;96012.41;;;19.72;100.00
19023;BME280;35226;48.606;8.858;2022-09-09T09:51:07;96001.41;;;19.91;100.00
19023;BME280;35226;48.606;8.858;2022-09-09T09:53:38;95999.16;;;19.84;100.00
19023;BME280;35226;48.606;8.858;2022-09-09T09:56:10;96014.47;;;19.77;100.00
19023;BME280;35226;48.606;8.858;2022-09-09T10:01:31;95991.94;;;20.11;100.00
19023;BME280;35226;48.606;8.858;2022-09-09T10:04:20;95992.16;;;20.35;100.00
19023;BME280;35226;48.606;8.858;2022-09-09T10:06:50;95996.28;;;20.17;100.00
19023;BME280;35226;48.606;8.858;2022-09-09T10:09:26;96000.03;;;20.31;100.00
19023;BME280;35226;48.606;8.858;2022-09-09T10:12:18;96000.81;;;20.31;100.00
19023;BME280;35226;48.606;8.858;2022-09-09T10:15:15;95997.47;;;20.39;100.00
19023;BME280;35226;48.606;8.858;2022-09-09T10:23:41;95988.81;;;20.42;100.00
19023;BME280;35226;48.606;8.858;2022-09-09T10:26:16;95988.06;;;20.30;100.00
19023;BME280;35226;48.606;8.858;2022-09-09T10:35:02;95997.72;;;20.46;100.00
19023;BME280;35226;48.606;8.858;2022-09-09T10:40:38;96010.88;;;19.88;100.00
19023;BME280;35226;48.606;8.858;2022-09-09T10:51:33;96034.06;;;19.61;100.00
19023;BME280;35226;48.606;8.858;2022-09-09T10:54:09;96045.97;;;19.11;100.00
19023;BME280;35226;48.606;8.858;2022-09-09T10:56:41;96050.03;;;19.10;100.00
19023;BME280;35226;48.606;8.858;2022-09-09T11:04:21;96059.44;;;17.94;100.00
19023;BME280;35226;48.606;8.858;2022-09-09T11:06:54;96075.38;;;17.82;100.00
19023;BME280;35226;48.606;8.858;2022-09-09T11:09:28;96075.88;;;17.55;100.00
19023;BME280;35226;48.606;8.858;2022-09-09T11:11:58;96069.59;;;17.34;100.00
19023;BME280;35226;48.606;8.858;2022-09-09T11:14:41;96071.28;;;17.26;100.00
19023;BME280;35226;48.606;8.858;2022-09-09T11:17:12;96061.94;;;17.29;100.00
19023;BME280;35226;48.606;8.858;2022-09-09T11:19:41;96052.00;;;17.22;100.00
19023;BME280;35226;48.606;8.858;2022-09-09T11:22:30;96058.28;;;17.17;100.00
19023;BME280;35226;48.606;8.858;2022-09-09T11:41:35;96045.63;;;17.79;100.00
19023;BME280;35226;48.606;8.858;2022-09-09T11:44:11;96046.41;;;17.85;100.00
19023;BME280;35226;48.606;8.858;2022-09-09T11:46:38;96046.66;;;17.82;100.00
19023;BME280;35226;48.606;8.858;2022-09-09T11:49:26;96041.19;;;17.98;100.00
19023;BME280;35226;48.606;8.858;2022-09-09T11:51:52;96034.31;;;17.99;100.00
19023;BME280;35226;48.606;8.858;2022-09-09T11:54:33;96029.38;;;18.31;100.00
19023;BME280;35226;48.606;8.858;2022-09-09T11:57:02;96030.75;;;18.47;100.00
19023;BME280;35226;48.606;8.858;2022-09-09T11:59:31;96022.75;;;18.82;100.00
19023;BME280;35226;48.606;8.858;2022-09-09T12:05:00;96028.22;;;19.75;100.00
19023;BME280;35226;48.606;8.858;2022-09-09T12:07:50;96030.28;;;19.58;100.00
19023;BME280;35226;48.606;8.858;2022-09-09T12:10:29;96030.97;;;19.42;100.00
19023;BME280;35226;48.606;8.858;2022-09-09T12:12:55;96035.56;;;19.39;100.00
19023;BME280;35226;48.606;8.858;2022-09-09T12:15:33;96035.59;;;19.45;100.00
19023;BME280;35226;48.606;8.858;2022-09-09T12:17:58;96032.25;;;19.41;100.00
19023;BME280;35226;48.606;8.858;2022-09-09T12:20:36;96026.66;;;19.46;100.00
19023;BME280;35226;48.606;8.858;2022-09-09T12:32:01;96010.50;;;20.30;100.00
19023;BME280;35226;48.606;8.858;2022-09-09T12:37:14;96008.31;;;20.70;100.00
19023;BME280;35226;48.606;8.858;2022-09-09T12:39:47;96009.44;;;20.97;100.00
19023;BME280;35226;48.606;8.858;2022-09-09T12:42:20;96006.09;;;21.04;100.00
19023;BME280;35226;48.606;8.858;2022-09-09T12:45:00;96002.84;;;20.94;93.67
19023;BME280;35226;48.606;8.858;2022-09-09T12:47:46;96008.81;;;21.21;97.78
19023;BME280;35226;48.606;8.858;2022-09-09T12:50:27;95993.22;;;21.55;86.03
19023;BME280;35226;48.606;8.858;2022-09-09T12:52:57;95989.09;;;21.62;81.31
19023;BME280;35226;48.606;8.858;2022-09-09T12:55:27;95994.06;;;21.74;85.78
19023;BME280;35226;48.606;8.858;2022-09-09T12:57:55;95994.28;;;22.06;76.90
19023;BME280;35226;48.606;8.858;2022-09-09T13:00:24;95991.81;;;21.97;76.96
19023;BME280;35226;48.606;8.858;2022-09-09T13:02:58;95981.50;;;22.05;71.21
19023;BME280;35226;48.606;8.858;2022-09-09T13:05:37;95986.19;;;21.97;74.41
19023;BME280;35226;48.606;8.858;2022-09-09T13:08:10;95979.84;;;21.91;75.67
19023;BME280;35226;48.606;8.858;2022-09-09T13:10:50;95981.91;;;21.91;75.81
19023;BME280;35226;48.606;8.858;2022-09-09T13:13:31;95972.06;;;21.78;84.10
19023;BME280;35226;48.606;8.858;2022-09-09T13:16:01;95976.97;;;21.72;75.16
19023;BME280;35226;48.606;8.858;2022-09-09T13:18:33;95975.00;;;21.92;67.81
19023;BME280;35226;48.606;8.858;2022-09-09T13:20:59;95970.00;;;21.79;67.03
19023;BME280;35226;48.606;8.858;2022-09-09T13:23:33;95975.13;;;21.51;68.90
19023;BME280;35226;48.606;8.858;2022-09-09T13:26:21;95975.91;;;21.75;67.73
19023;BME280;35226;48.606;8.858;2022-09-09T13:28:47;95970.75;;;21.79;66.85
19023;BME280;35226;48.606;8.858;2022-09-09T13:31:22;95964.50;;;22.60;64.44
19023;BME280;35226;48.606;8.858;2022-09-09T13:33:48;95964.31;;;22.76;62.86
19023;BME280;35226;48.606;8.858;2022-09-09T13:36:14;95960.72;;;22.76;66.30
19023;BME280;35226;48.606;8.858;2022-09-09T13:41:46;95957.34;;;23.15;61.80
19023;BME280;35226;48.606;8.858;2022-09-09T13:44:40;95949.00;;;24.13;56.83
19023;BME280;35226;48.606;8.858;2022-09-09T13:47:06;95946.28;;;23.94;55.34
19023;BME280;35226;48.606;8.858;2022-09-09T13:49:32;95948.31;;;23.80;50.20
19023;BME280;35226;48.606;8.858;2022-09-09T13:52:12;95947.25;;;23.83;50.03
19023;BME280;35226;48.606;8.858;2022-09-09T13:54:39;95953.72;;;23.65;51.23
19023;BME280;35226;48.606;8.858;2022-09-09T13:57:15;95945.31;;;24.05;48.81
19023;BME280;35226;48.606;8.858;2022-09-09T13:59:42;95948.13;;;24.05;47.96
19023;BME280;35226;48.606;8.858;2022-09-09T14:02:08;95949.94;;;23.76;46.76
19023;BME280;35226;48.606;8.858;2022-09-09T14:04:33;95943.66;;;23.70;45.85
19023;BME280;35226;48.606;8.858;2022-09-09T14:07:01;95954.78;;;23.62;48.53
19023;BME280;35226;48.606;8.858;2022-09-09T14:09:27;95947.78;;;23.69;46.97
19023;BME280;35226;48.606;8.858;2022-09-09T14:11:52;95955.84;;;24.04;45.70
19023;BME280;35226;48.606;8.858;2022-09-09T14:14:18;95953.78;;;24.18;46.18
19023;BME280;35226;48.606;8.858;2022-09-09T14:16:43;95946.59;;;23.77;46.10
19023;BME280;35226;48.606;8.858;2022-09-09T14:19:09;95938.78;;;23.96;46.65
19023;BME280;35226;48.606;8.858;2022-09-09T14:21:35;95941.19;;;24.19;46.25
19023;BME280;35226;48.606;8.858;2022-09-09T14:24:01;95935.00;;;24.07;45.52
19023;BME280;35226;48.606;8.858;2022-09-09T14:26:26;95936.94;;;24.12;46.33
19023;BME280;35226;48.606;8.858;2022-09-09T14:28:54;95942.25;;;23.76;44.40
19023;BME280;35226;48.606;8.858;2022-09-09T14:31:19;95954.09;;;24.01;42.71
19023;BME280;35226;48.606;8.858;2022-09-09T14:33:46;95934.13;;;24.52;43.80
19023;BME280;35226;48.606;8.858;2022-09-09T14:36:12;95943.13;;;24.11;44.04
19023;BME280;35226;48.606;8.858;2022-09-09T14:38:38;95941.56;;;23.70;45.22
19023;BME280;35226;48.606;8.858;2022-09-09T14:41:18;95943.22;;;23.92;46.49
19023;BME280;35226;48.606;8.858;2022-09-09T14:43:44;95949.22;;;24.41;46.37
19023;BME280;35226;48.606;8.858;2022-09-09T14:46:13;95944.63;;;24.78;45.82
19023;BME280;35226;48.606;8.858;2022-09-09T14:48:39;95941.13;;;24.71;45.26
19023;BME280;35226;48.606;8.858;2022-09-09T14:51:14;95945.19;;;25.31;44.07
19023;BME280;35226;48.606;8.858;2022-09-09T14:53:41;95941.81;;;25.12;44.60
19023;BME280;35226;48.606;8.858;2022-09-09T14:56:09;95941.34;;;24.74;45.86
19023;BME280;35226;48.606;8.858;2022-09-09T14:58:36;95945.41;;;25.33;43.54
19023;BME280;35226;48.606;8.858;2022-09-09T15:01:06;95950.53;;;25.34;43.04
19023;BME280;35226;48.606;8.858;2022-09-09T15:03:33;95939.63;;;25.80;43.63
19023;BME280;35226;48.606;8.858;2022-09-09T15:06:04;95947.75;;;25.21;42.28
19023;BME280;35226;48.606;8.858;2022-09-09T15:08:29;95945.75;;;25.29;41.88
19023;BME280;35226;48.606;8.858;2022-09-09T15:10:59;95950.31;;;25.32;40.50
19023;BME280;35226;48.606;8.858;2022-09-09T15:13:26;95949.78;;;25.55;39.66
19023;BME280;35226;48.606;8.858;2022-09-09T15:15:51;95946.81;;;25.60;40.22
19023;BME280;35226;48.606;8.858;2022-09-09T15:18:17;95949.28;;;25.43;39.88
19023;BME280;35226;48.606;8.858;2022-09-09T15:20:46;95943.66;;;25.64;40.95
19023;BME280;35226;48.606;8.858;2022-09-09T15:23:12;95936.31;;;25.68;40.25
19023;BME280;35226;48.606;8.858;2022-09-09T15:25:37;95937.81;;;25.28;40.99
19023;BME280;35226;48.606;8.858;2022-09-09T15:28:03;95940.00;;;24.88;40.77
19023;BME280;35226;48.606;8.858;2022-09-09T15:30:29;95934.09;;;24.65;42.47
19023;BME280;35226;48.606;8.858;2022-09-09T15:32:54;95940.44;;;24.18;43.07
19023;BME280;35226;48.606;8.858;2022-09-09T15:35:20;95940.84;;;23.96;44.43
19023;BME280;35226;48.606;8.858;2022-09-09T15:37:46;95952.47;;;23.79;44.59
19023;BME280;35226;48.606;8.858;2022-09-09T15:40:11;95959.13;;;23.63;46.05
19023;BME280;35226;48.606;8.858;2022-09-09T15:42:37;95956.53;;;23.65;45.98